AirNav   Air Wisconsin pilot careers
 
 335 users online  

30PN Pittsburgh Children's Hospital Heliport
Pittsburgh, Pennsylvania, USA

GOING TO PITTSBURGH?


FAA INFORMATION EFFECTIVE 06 DECEMBER 2018

Location

FAA Identifier: 30PN
Lat/Long: 40-27-59.7900N / 079-57-09.6100W
40-27.996500N / 079-57.160167W
40.4666083 / -79.9526694
(estimated)
Elevation: 1088 ft. / 332 m (estimated)
Variation: 09W (2010)
From city: 1 mile SW of PITTSBURGH, PA
Time zone: UTC -5 (UTC -4 during Daylight Saving Time)
Zip code: 15223

Heliport Operations

Heliport use: Private use. Permission required prior to landing
Activation date: 04/2009
Control tower: no
ARTCC: CLEVELAND CENTER
FSS: ALTOONA FLIGHT SERVICE STATION
NOTAMs facility: FDC (NOTAM-D service not available)
Attendance: UNATNDD
Wind indicator: yes
Segmented circle: no

Heliport Communications

PITTSBURGH APPROACH: 119.35
PITTSBURGH DEPARTURE: 119.35
WX AWOS-A at 42PN (2.4 nm W): PHONE 412-442-2213
WX ASOS at AGC (7 nm S): PHONE 412-466-8968
WX ASOS at PIT (13 nm W): PHONE 412-472-0145
WX AWOS-3 at FWQ (16 nm S): 118.475 (724-379-5815)
WX AWOS-3PT at BTP (19 nm N): 121.450 (724-586-6434)

Nearby radio navigation aids

VOR radial/distance  VOR name  Freq  Var
AGCr029/12.0ALLEGHENY VOR/DME110.0009W
EWCr159/24.5ELLWOOD CITY VOR/DME115.8008W
HLGr073/30.8WHEELING VOR/DME112.2007W

 
NDB name  Hdg/Dist  Freq  Var  ID
CASTLE157/39.527209WUCP ..- -.-. .--.

Heliport Services

Runway Information

Helipad H1

Dimensions: 45 x 45 ft. / 14 x 14 m
Surface: ROOFTOP, in fair condition
Runway edge lights: PERI
Latitude: 40-27.996500N
Longitude: 079-57.160167W
Elevation: 1088.0 ft.
Traffic pattern: leftleft
Markings: none, in fair condition

Heliport Ownership and Management from official FAA records

Ownership: Privately-owned
Owner: CHILDREN'S HOSPITAL OF PITTSBURGH
UPMC, 4401 PENN AVE
PITTSBURGH, PA 15201
Phone 412-692-5325
Manager: JAMES MAJSAK
4401 PENN AVENUE
PITTSBURGH, PA 15224
Phone 412-692-7252
(412) 692-5191

Additional Remarks

A52-H1 30 FT BLDG 49 FT N OF PAD.

Instrument Procedures

There are no published instrument procedures at 30PN.

Some nearby airports with instrument procedures:

KAGC - Allegheny County Airport (7 nm S)
KPIT - Pittsburgh International Airport (13 nm W)
G05 - Finleyville Airpark (14 nm S)
KFWQ - Rostraver Airport (16 nm S)
KBTP - Pittsburgh/Butler Regional Airport (19 nm N)
 
Loc | Ops | Rwys | IFR | FBO | Links
Com | Nav | Svcs | Stats | Notes


 
Aerial photo
No photo
 
Sectional chart

 
Airport distance calculator
Flying to Pittsburgh Children's Hospital Heliport? Find the distance to fly.

From to 30PN

Sunrise and sunset
Times for 11-Dec-2018
 Local
(UTC-5)
 Zulu
(UTC)
Morning civil twilight07:0312:03
Sunrise07:3412:34
Sunset16:5221:52
Evening civil twilight17:2322:23

Current date and time
Zulu (UTC)  11-Dec-2018 10:24:29
Local (UTC-5)  11-Dec-2018 05:24:29
 
METAR
KAGC 
7nm S 
110953Z 20006KT 10SM OVC012 M06/M08 A3014 RMK AO2 SLP229 T10611083
KPIT 
14nm W 
110951Z 21008KT 9SM OVC014 M05/M08 A3014 RMK AO2 SLP230 T10501078
KP53 
16nm S 
110956Z AUTO 27009KT M02/M05 A2989 RMK AO1 SLP130 T10221050
KBTP 
18nm N 
110956Z AUTO 20006KT 10SM OVC013 M06/M08 A3013 RMK AO2 SLP227 T10561078 FZRANO
TAF
KAGC 
7nm S 
110520Z 1106/1206 20005KT P6SM OVC015 FM111100 21005KT P6SM OVC008 FM111600 21010KT P6SM OVC010 FM111900 22010G18KT P6SM SCT025 FM120100 23008KT P6SM BKN025
KPIT 
14nm W 
110815Z 1108/1212 21008KT P6SM OVC015 TEMPO 1110/1114 OVC008 FM111900 22010G18KT P6SM SCT025 FM120100 24008KT P6SM BKN025 FM120700 25005KT P6SM BKN015
NOTAMs
Click for the latest NOTAMs
NOTAMs are issued by the DoD/FAA and will open in a separate window not controlled by AirNav.

 

 
 

Would you like to see your business listed on this page?

 If your business provides an interesting product or service to pilots, flight crews, aircraft, or users of the Pittsburgh Children's Hospital Heliport, you should consider listing it here.  To start the listing process, click on the button below
 
Add a business
 

Other Pages about Pittsburgh Children's Hospital Heliport

Update a link
 
Copyright © AirNav, LLC. All rights reserved. Privacy Policy  Contact